KCPU

Calaveras Co-Maury Rasmussen Field Airport

San Andreas, California, USA
METAR KCPU 200630Z AUTO 00000KT 10SM CLR M01/M06 A3008 RMK AO2 T10061059
Observed Flight Rules
Feb-20 @ 06:30 UTC (42 minutes ago) Visual Flight Rules
Wind Visibility Clouds
Calm 10 miles
  • Clear skies
Temperatures Readings
Current -1°C / 30°F
Dewpoint -6°C / 21°F
Humidity 69%
Altimeter 30.08" Hg
Pressure 1019 hPa
Elevation 404
METAR KCPU 200630Z AUTO 00000KT 10SM CLR M01/M06 A3008 RMK AO2 T10061059
Observed Flight Rules
Feb-20 @ 06:30 UTC
(42 minutes ago)
VFR
Wind Visibility
Calm 10 miles
Clouds
  • Clear skies
Temperature Dewpoint
-1°C / 30°F -6°C / 21°F
Humidity Altimeter Pressure
69% 30.08" Hg 1019 hPa